sensor_id;sensor_type;location;lat;lon;timestamp;temperature;humidity
11818;DHT22;5966;52.402;5.322;2023-11-19T00:01:19;12.90;99.90
11818;DHT22;5966;52.402;5.322;2023-11-19T00:03:47;12.90;99.90
11818;DHT22;5966;52.402;5.322;2023-11-19T00:06:18;12.90;99.90
11818;DHT22;5966;52.402;5.322;2023-11-19T00:08:46;12.90;99.90
11818;DHT22;5966;52.402;5.322;2023-11-19T00:11:14;12.90;99.90
11818;DHT22;5966;52.402;5.322;2023-11-19T00:13:43;12.90;99.90
11818;DHT22;5966;52.402;5.322;2023-11-19T00:16:11;12.90;99.90
11818;DHT22;5966;52.402;5.322;2023-11-19T00:18:39;12.90;99.90
11818;DHT22;5966;52.402;5.322;2023-11-19T00:21:07;12.90;99.90
11818;DHT22;5966;52.402;5.322;2023-11-19T00:23:38;12.90;99.90
11818;DHT22;5966;52.402;5.322;2023-11-19T00:26:06;12.90;99.90
11818;DHT22;5966;52.402;5.322;2023-11-19T00:28:34;12.90;99.90
11818;DHT22;5966;52.402;5.322;2023-11-19T00:31:05;12.90;99.90
11818;DHT22;5966;52.402;5.322;2023-11-19T00:33:33;12.90;99.90
11818;DHT22;5966;52.402;5.322;2023-11-19T00:36:00;12.90;99.90
11818;DHT22;5966;52.402;5.322;2023-11-19T00:38:29;12.90;99.90
11818;DHT22;5966;52.402;5.322;2023-11-19T00:40:59;12.90;99.90
11818;DHT22;5966;52.402;5.322;2023-11-19T00:43:29;12.90;99.90
11818;DHT22;5966;52.402;5.322;2023-11-19T00:45:57;12.90;99.90
11818;DHT22;5966;52.402;5.322;2023-11-19T00:48:25;12.80;99.90
11818;DHT22;5966;52.402;5.322;2023-11-19T00:50:54;12.80;99.90
11818;DHT22;5966;52.402;5.322;2023-11-19T00:53:23;12.80;99.90
11818;DHT22;5966;52.402;5.322;2023-11-19T00:55:51;12.80;99.90
11818;DHT22;5966;52.402;5.322;2023-11-19T00:58:20;12.80;99.90
11818;DHT22;5966;52.402;5.322;2023-11-19T01:00:48;12.80;99.90
11818;DHT22;5966;52.402;5.322;2023-11-19T01:03:17;12.80;99.90
11818;DHT22;5966;52.402;5.322;2023-11-19T01:05:45;12.70;99.90
11818;DHT22;5966;52.402;5.322;2023-11-19T01:08:15;12.70;99.90
11818;DHT22;5966;52.402;5.322;2023-11-19T01:10:47;12.70;99.90
11818;DHT22;5966;52.402;5.322;2023-11-19T01:13:15;12.80;99.90
11818;DHT22;5966;52.402;5.322;2023-11-19T01:15:44;12.70;99.90
11818;DHT22;5966;52.402;5.322;2023-11-19T01:18:13;12.70;99.90
11818;DHT22;5966;52.402;5.322;2023-11-19T01:20:41;12.70;99.90
11818;DHT22;5966;52.402;5.322;2023-11-19T01:23:10;12.70;99.90
11818;DHT22;5966;52.402;5.322;2023-11-19T01:25:38;12.70;99.90
11818;DHT22;5966;52.402;5.322;2023-11-19T01:28:06;12.70;99.90
11818;DHT22;5966;52.402;5.322;2023-11-19T01:30:34;12.70;99.90
11818;DHT22;5966;52.402;5.322;2023-11-19T01:33:03;12.70;99.90
11818;DHT22;5966;52.402;5.322;2023-11-19T01:35:34;12.70;99.90
11818;DHT22;5966;52.402;5.322;2023-11-19T01:38:02;12.70;99.90
11818;DHT22;5966;52.402;5.322;2023-11-19T01:40:30;12.70;99.90
11818;DHT22;5966;52.402;5.322;2023-11-19T01:42:58;12.70;99.90
11818;DHT22;5966;52.402;5.322;2023-11-19T01:45:28;12.70;99.90
11818;DHT22;5966;52.402;5.322;2023-11-19T01:47:59;12.70;99.90
11818;DHT22;5966;52.402;5.322;2023-11-19T01:50:30;12.70;99.90
11818;DHT22;5966;52.402;5.322;2023-11-19T01:52:59;12.70;99.90
11818;DHT22;5966;52.402;5.322;2023-11-19T01:55:28;12.70;99.90
11818;DHT22;5966;52.402;5.322;2023-11-19T01:57:59;12.70;99.90
11818;DHT22;5966;52.402;5.322;2023-11-19T02:00:28;12.70;99.90
11818;DHT22;5966;52.402;5.322;2023-11-19T02:02:57;12.70;99.90
11818;DHT22;5966;52.402;5.322;2023-11-19T02:05:25;12.70;99.90
11818;DHT22;5966;52.402;5.322;2023-11-19T02:07:55;12.70;99.90
11818;DHT22;5966;52.402;5.322;2023-11-19T02:10:23;12.70;99.90
11818;DHT22;5966;52.402;5.322;2023-11-19T02:12:52;12.70;99.90
11818;DHT22;5966;52.402;5.322;2023-11-19T02:15:31;12.70;99.90
11818;DHT22;5966;52.402;5.322;2023-11-19T02:18:17;12.60;99.90
11818;DHT22;5966;52.402;5.322;2023-11-19T02:20:45;12.60;99.90
11818;DHT22;5966;52.402;5.322;2023-11-19T02:23:18;12.60;99.90
11818;DHT22;5966;52.402;5.322;2023-11-19T02:25:50;12.60;99.90
11818;DHT22;5966;52.402;5.322;2023-11-19T02:28:24;12.60;99.90
11818;DHT22;5966;52.402;5.322;2023-11-19T02:30:52;12.60;99.90
11818;DHT22;5966;52.402;5.322;2023-11-19T02:33:20;12.50;99.90
11818;DHT22;5966;52.402;5.322;2023-11-19T02:35:49;12.50;99.90
11818;DHT22;5966;52.402;5.322;2023-11-19T02:38:17;12.50;99.90
11818;DHT22;5966;52.402;5.322;2023-11-19T02:40:45;12.50;99.90
11818;DHT22;5966;52.402;5.322;2023-11-19T02:43:14;12.50;99.90
11818;DHT22;5966;52.402;5.322;2023-11-19T02:45:43;12.50;99.90
11818;DHT22;5966;52.402;5.322;2023-11-19T02:48:12;12.50;99.90
11818;DHT22;5966;52.402;5.322;2023-11-19T02:50:41;12.50;99.90
11818;DHT22;5966;52.402;5.322;2023-11-19T02:53:09;12.50;99.90
11818;DHT22;5966;52.402;5.322;2023-11-19T02:55:37;12.50;99.90
11818;DHT22;5966;52.402;5.322;2023-11-19T02:58:07;12.50;99.90
11818;DHT22;5966;52.402;5.322;2023-11-19T03:00:47;12.50;99.90
11818;DHT22;5966;52.402;5.322;2023-11-19T03:03:22;12.50;99.90
11818;DHT22;5966;52.402;5.322;2023-11-19T03:05:55;12.50;99.90
11818;DHT22;5966;52.402;5.322;2023-11-19T03:08:23;12.40;99.90
11818;DHT22;5966;52.402;5.322;2023-11-19T03:10:51;12.40;99.90
11818;DHT22;5966;52.402;5.322;2023-11-19T03:13:19;12.40;99.90
11818;DHT22;5966;52.402;5.322;2023-11-19T03:15:51;12.40;99.90
11818;DHT22;5966;52.402;5.322;2023-11-19T03:18:20;12.40;99.90
11818;DHT22;5966;52.402;5.322;2023-11-19T03:20:48;12.40;99.90
11818;DHT22;5966;52.402;5.322;2023-11-19T03:23:17;12.40;99.90
11818;DHT22;5966;52.402;5.322;2023-11-19T03:25:45;12.40;99.90
11818;DHT22;5966;52.402;5.322;2023-11-19T03:28:13;12.30;99.90
11818;DHT22;5966;52.402;5.322;2023-11-19T03:30:42;12.30;99.90
11818;DHT22;5966;52.402;5.322;2023-11-19T03:33:11;12.40;99.90
11818;DHT22;5966;52.402;5.322;2023-11-19T03:35:39;12.30;99.90
11818;DHT22;5966;52.402;5.322;2023-11-19T03:38:08;12.30;99.90
11818;DHT22;5966;52.402;5.322;2023-11-19T03:40:36;12.30;99.90
11818;DHT22;5966;52.402;5.322;2023-11-19T03:43:05;12.30;99.90
11818;DHT22;5966;52.402;5.322;2023-11-19T03:45:33;12.20;99.90
11818;DHT22;5966;52.402;5.322;2023-11-19T03:48:03;12.20;99.90
11818;DHT22;5966;52.402;5.322;2023-11-19T03:50:33;12.20;99.90
11818;DHT22;5966;52.402;5.322;2023-11-19T03:53:04;12.20;99.90
11818;DHT22;5966;52.402;5.322;2023-11-19T03:55:32;12.20;99.90
11818;DHT22;5966;52.402;5.322;2023-11-19T03:58:00;12.20;99.90
11818;DHT22;5966;52.402;5.322;2023-11-19T04:00:27;12.20;99.90
11818;DHT22;5966;52.402;5.322;2023-11-19T04:02:56;12.20;99.90
11818;DHT22;5966;52.402;5.322;2023-11-19T04:05:25;12.20;99.90
11818;DHT22;5966;52.402;5.322;2023-11-19T04:07:54;12.20;99.90
11818;DHT22;5966;52.402;5.322;2023-11-19T04:10:23;12.20;99.90
11818;DHT22;5966;52.402;5.322;2023-11-19T04:12:51;12.20;99.90
11818;DHT22;5966;52.402;5.322;2023-11-19T04:15:19;12.20;99.90
11818;DHT22;5966;52.402;5.322;2023-11-19T04:17:47;12.20;99.90
11818;DHT22;5966;52.402;5.322;2023-11-19T04:20:15;12.20;99.90
11818;DHT22;5966;52.402;5.322;2023-11-19T04:22:43;12.20;99.90
11818;DHT22;5966;52.402;5.322;2023-11-19T04:25:13;12.20;99.90
11818;DHT22;5966;52.402;5.322;2023-11-19T04:27:42;12.20;99.90
11818;DHT22;5966;52.402;5.322;2023-11-19T04:30:10;12.30;99.90
11818;DHT22;5966;52.402;5.322;2023-11-19T04:32:39;12.30;99.90
11818;DHT22;5966;52.402;5.322;2023-11-19T04:35:08;12.20;99.90
11818;DHT22;5966;52.402;5.322;2023-11-19T04:37:36;12.20;99.90
11818;DHT22;5966;52.402;5.322;2023-11-19T04:40:06;12.20;99.90
11818;DHT22;5966;52.402;5.322;2023-11-19T04:42:36;12.20;99.90
11818;DHT22;5966;52.402;5.322;2023-11-19T04:45:05;12.20;99.90
11818;DHT22;5966;52.402;5.322;2023-11-19T04:47:34;12.20;99.90
11818;DHT22;5966;52.402;5.322;2023-11-19T04:50:02;12.20;99.90
11818;DHT22;5966;52.402;5.322;2023-11-19T04:52:30;12.10;99.90
11818;DHT22;5966;52.402;5.322;2023-11-19T04:54:59;12.20;99.90
11818;DHT22;5966;52.402;5.322;2023-11-19T04:57:27;12.10;99.90
11818;DHT22;5966;52.402;5.322;2023-11-19T04:59:56;12.10;99.90
11818;DHT22;5966;52.402;5.322;2023-11-19T05:02:24;12.10;99.90
11818;DHT22;5966;52.402;5.322;2023-11-19T05:04:52;12.10;99.90
11818;DHT22;5966;52.402;5.322;2023-11-19T05:07:21;12.10;99.90
11818;DHT22;5966;52.402;5.322;2023-11-19T05:09:49;12.10;99.90
11818;DHT22;5966;52.402;5.322;2023-11-19T05:12:17;12.10;99.90
11818;DHT22;5966;52.402;5.322;2023-11-19T05:14:45;12.10;99.90
11818;DHT22;5966;52.402;5.322;2023-11-19T05:17:18;12.10;99.90
11818;DHT22;5966;52.402;5.322;2023-11-19T05:19:46;12.10;99.90
11818;DHT22;5966;52.402;5.322;2023-11-19T05:22:15;12.20;99.90
11818;DHT22;5966;52.402;5.322;2023-11-19T05:24:43;12.20;99.90
11818;DHT22;5966;52.402;5.322;2023-11-19T05:27:11;12.20;99.90
11818;DHT22;5966;52.402;5.322;2023-11-19T05:29:40;12.20;99.90
11818;DHT22;5966;52.402;5.322;2023-11-19T05:32:09;12.20;99.90
11818;DHT22;5966;52.402;5.322;2023-11-19T05:34:40;12.20;99.90
11818;DHT22;5966;52.402;5.322;2023-11-19T05:37:11;12.20;99.90
11818;DHT22;5966;52.402;5.322;2023-11-19T05:39:39;12.20;99.90
11818;DHT22;5966;52.402;5.322;2023-11-19T05:42:07;12.20;99.90
11818;DHT22;5966;52.402;5.322;2023-11-19T05:44:36;12.20;99.90
11818;DHT22;5966;52.402;5.322;2023-11-19T05:47:07;12.20;99.90
11818;DHT22;5966;52.402;5.322;2023-11-19T05:49:35;12.20;99.90
11818;DHT22;5966;52.402;5.322;2023-11-19T05:52:05;12.20;99.90
11818;DHT22;5966;52.402;5.322;2023-11-19T05:54:36;12.20;99.90
11818;DHT22;5966;52.402;5.322;2023-11-19T05:57:06;12.20;99.90
11818;DHT22;5966;52.402;5.322;2023-11-19T05:59:36;12.10;99.90
11818;DHT22;5966;52.402;5.322;2023-11-19T06:02:04;12.10;99.90
11818;DHT22;5966;52.402;5.322;2023-11-19T06:04:33;12.10;99.90
11818;DHT22;5966;52.402;5.322;2023-11-19T06:07:01;12.10;99.90
11818;DHT22;5966;52.402;5.322;2023-11-19T06:09:31;12.10;99.90
11818;DHT22;5966;52.402;5.322;2023-11-19T06:12:00;12.10;99.90
11818;DHT22;5966;52.402;5.322;2023-11-19T06:14:29;12.10;99.90
11818;DHT22;5966;52.402;5.322;2023-11-19T06:16:57;12.10;99.90
11818;DHT22;5966;52.402;5.322;2023-11-19T06:19:25;12.10;99.90
11818;DHT22;5966;52.402;5.322;2023-11-19T06:21:56;12.10;99.90
11818;DHT22;5966;52.402;5.322;2023-11-19T06:24:25;12.10;99.90
11818;DHT22;5966;52.402;5.322;2023-11-19T06:26:54;12.10;99.90
11818;DHT22;5966;52.402;5.322;2023-11-19T06:29:23;12.10;99.90
11818;DHT22;5966;52.402;5.322;2023-11-19T06:31:51;12.10;99.90
11818;DHT22;5966;52.402;5.322;2023-11-19T06:34:20;12.00;99.90
11818;DHT22;5966;52.402;5.322;2023-11-19T06:36:48;12.10;99.90
11818;DHT22;5966;52.402;5.322;2023-11-19T06:39:16;12.10;99.90
11818;DHT22;5966;52.402;5.322;2023-11-19T06:41:45;12.00;99.90
11818;DHT22;5966;52.402;5.322;2023-11-19T06:44:15;12.00;99.90
11818;DHT22;5966;52.402;5.322;2023-11-19T06:46:43;12.00;99.90
11818;DHT22;5966;52.402;5.322;2023-11-19T06:49:11;12.00;99.90
11818;DHT22;5966;52.402;5.322;2023-11-19T06:51:41;12.00;99.90
11818;DHT22;5966;52.402;5.322;2023-11-19T06:54:10;12.00;99.90
11818;DHT22;5966;52.402;5.322;2023-11-19T06:56:39;12.00;99.90
11818;DHT22;5966;52.402;5.322;2023-11-19T06:59:09;12.00;99.90
11818;DHT22;5966;52.402;5.322;2023-11-19T07:01:38;12.00;99.90
11818;DHT22;5966;52.402;5.322;2023-11-19T07:04:10;12.00;99.90
11818;DHT22;5966;52.402;5.322;2023-11-19T07:06:39;12.00;99.90
11818;DHT22;5966;52.402;5.322;2023-11-19T07:09:08;12.00;99.90
11818;DHT22;5966;52.402;5.322;2023-11-19T07:11:37;12.00;99.90
11818;DHT22;5966;52.402;5.322;2023-11-19T07:14:06;12.00;99.90
11818;DHT22;5966;52.402;5.322;2023-11-19T07:16:35;12.00;99.90
11818;DHT22;5966;52.402;5.322;2023-11-19T07:19:07;12.00;99.90
11818;DHT22;5966;52.402;5.322;2023-11-19T07:21:35;12.00;99.90
11818;DHT22;5966;52.402;5.322;2023-11-19T07:24:06;12.10;99.90
11818;DHT22;5966;52.402;5.322;2023-11-19T07:26:35;12.10;99.90
11818;DHT22;5966;52.402;5.322;2023-11-19T07:29:04;12.10;99.90
11818;DHT22;5966;52.402;5.322;2023-11-19T07:31:34;12.10;99.90
11818;DHT22;5966;52.402;5.322;2023-11-19T07:34:02;12.10;99.90
11818;DHT22;5966;52.402;5.322;2023-11-19T07:36:33;12.10;99.90
11818;DHT22;5966;52.402;5.322;2023-11-19T07:39:03;12.10;99.90
11818;DHT22;5966;52.402;5.322;2023-11-19T07:41:32;12.10;99.90
11818;DHT22;5966;52.402;5.322;2023-11-19T07:44:01;12.10;99.90
11818;DHT22;5966;52.402;5.322;2023-11-19T07:46:29;12.10;99.90
11818;DHT22;5966;52.402;5.322;2023-11-19T07:48:58;12.10;99.90
11818;DHT22;5966;52.402;5.322;2023-11-19T07:51:26;12.10;99.90
11818;DHT22;5966;52.402;5.322;2023-11-19T07:53:56;12.20;99.90
11818;DHT22;5966;52.402;5.322;2023-11-19T07:56:24;12.20;99.90
11818;DHT22;5966;52.402;5.322;2023-11-19T07:58:52;12.20;99.90
11818;DHT22;5966;52.402;5.322;2023-11-19T08:01:21;12.20;99.90
11818;DHT22;5966;52.402;5.322;2023-11-19T08:03:50;12.20;99.90
11818;DHT22;5966;52.402;5.322;2023-11-19T08:06:21;12.20;99.90
11818;DHT22;5966;52.402;5.322;2023-11-19T08:08:49;12.10;99.90
11818;DHT22;5966;52.402;5.322;2023-11-19T08:11:20;12.10;99.90
11818;DHT22;5966;52.402;5.322;2023-11-19T08:13:48;12.10;99.90
11818;DHT22;5966;52.402;5.322;2023-11-19T08:16:16;12.00;99.90
11818;DHT22;5966;52.402;5.322;2023-11-19T08:18:45;12.00;99.90
11818;DHT22;5966;52.402;5.322;2023-11-19T08:21:13;12.00;99.90
11818;DHT22;5966;52.402;5.322;2023-11-19T08:23:41;12.10;99.90
11818;DHT22;5966;52.402;5.322;2023-11-19T08:26:09;12.10;99.90
11818;DHT22;5966;52.402;5.322;2023-11-19T08:28:39;12.10;99.90
11818;DHT22;5966;52.402;5.322;2023-11-19T08:31:07;12.10;99.90
11818;DHT22;5966;52.402;5.322;2023-11-19T08:33:35;12.10;99.90
11818;DHT22;5966;52.402;5.322;2023-11-19T08:36:04;12.10;99.90
11818;DHT22;5966;52.402;5.322;2023-11-19T08:38:33;12.20;99.90
11818;DHT22;5966;52.402;5.322;2023-11-19T08:41:01;12.20;99.90
11818;DHT22;5966;52.402;5.322;2023-11-19T08:43:29;12.20;99.90
11818;DHT22;5966;52.402;5.322;2023-11-19T08:46:00;12.20;99.90
11818;DHT22;5966;52.402;5.322;2023-11-19T08:48:28;12.30;99.90
11818;DHT22;5966;52.402;5.322;2023-11-19T08:50:56;12.20;99.90
11818;DHT22;5966;52.402;5.322;2023-11-19T08:53:25;12.30;99.90
11818;DHT22;5966;52.402;5.322;2023-11-19T08:55:54;12.30;99.90
11818;DHT22;5966;52.402;5.322;2023-11-19T08:58:22;12.30;99.90
11818;DHT22;5966;52.402;5.322;2023-11-19T09:00:50;12.30;99.90
11818;DHT22;5966;52.402;5.322;2023-11-19T09:03:19;12.30;99.90
11818;DHT22;5966;52.402;5.322;2023-11-19T09:05:48;12.30;99.90
11818;DHT22;5966;52.402;5.322;2023-11-19T09:08:16;12.40;99.90
11818;DHT22;5966;52.402;5.322;2023-11-19T09:10:44;12.30;99.90
11818;DHT22;5966;52.402;5.322;2023-11-19T09:13:13;12.40;99.90
11818;DHT22;5966;52.402;5.322;2023-11-19T09:15:40;12.40;99.90
11818;DHT22;5966;52.402;5.322;2023-11-19T09:18:09;12.50;99.90
11818;DHT22;5966;52.402;5.322;2023-11-19T09:20:38;12.50;99.90
11818;DHT22;5966;52.402;5.322;2023-11-19T09:23:07;12.50;99.90
11818;DHT22;5966;52.402;5.322;2023-11-19T09:25:36;12.50;99.90
11818;DHT22;5966;52.402;5.322;2023-11-19T09:28:06;12.50;99.90
11818;DHT22;5966;52.402;5.322;2023-11-19T09:30:35;12.50;99.90
11818;DHT22;5966;52.402;5.322;2023-11-19T09:33:03;12.50;99.90
11818;DHT22;5966;52.402;5.322;2023-11-19T09:35:32;12.50;99.90
11818;DHT22;5966;52.402;5.322;2023-11-19T09:38:02;12.50;99.90
11818;DHT22;5966;52.402;5.322;2023-11-19T09:40:32;12.50;99.90
11818;DHT22;5966;52.402;5.322;2023-11-19T09:43:00;12.50;99.90
11818;DHT22;5966;52.402;5.322;2023-11-19T09:45:29;12.60;99.90
11818;DHT22;5966;52.402;5.322;2023-11-19T09:48:01;12.60;99.90
11818;DHT22;5966;52.402;5.322;2023-11-19T09:50:31;12.60;99.90
11818;DHT22;5966;52.402;5.322;2023-11-19T09:52:59;12.70;99.90
11818;DHT22;5966;52.402;5.322;2023-11-19T09:55:29;12.70;99.90
11818;DHT22;5966;52.402;5.322;2023-11-19T09:57:57;12.70;99.90
11818;DHT22;5966;52.402;5.322;2023-11-19T10:00:27;12.70;99.90
11818;DHT22;5966;52.402;5.322;2023-11-19T10:02:59;12.80;99.90
11818;DHT22;5966;52.402;5.322;2023-11-19T10:05:28;12.80;99.90
11818;DHT22;5966;52.402;5.322;2023-11-19T10:07:56;12.80;99.90
11818;DHT22;5966;52.402;5.322;2023-11-19T10:10:25;12.80;99.90
11818;DHT22;5966;52.402;5.322;2023-11-19T10:12:55;12.80;99.90
11818;DHT22;5966;52.402;5.322;2023-11-19T10:15:24;12.80;99.90
11818;DHT22;5966;52.402;5.322;2023-11-19T10:17:55;12.80;99.90
11818;DHT22;5966;52.402;5.322;2023-11-19T10:20:24;12.70;99.90
11818;DHT22;5966;52.402;5.322;2023-11-19T10:22:53;12.80;99.90
11818;DHT22;5966;52.402;5.322;2023-11-19T10:25:22;12.80;99.90
11818;DHT22;5966;52.402;5.322;2023-11-19T10:27:51;12.80;99.90
11818;DHT22;5966;52.402;5.322;2023-11-19T10:30:23;12.80;99.90
11818;DHT22;5966;52.402;5.322;2023-11-19T10:33:07;12.80;99.90
11818;DHT22;5966;52.402;5.322;2023-11-19T10:35:51;12.80;99.90
11818;DHT22;5966;52.402;5.322;2023-11-19T10:38:23;12.90;99.90
11818;DHT22;5966;52.402;5.322;2023-11-19T10:40:53;12.90;99.90
11818;DHT22;5966;52.402;5.322;2023-11-19T10:43:22;13.00;99.90
11818;DHT22;5966;52.402;5.322;2023-11-19T10:45:52;13.00;99.90
11818;DHT22;5966;52.402;5.322;2023-11-19T10:48:20;13.00;99.90
11818;DHT22;5966;52.402;5.322;2023-11-19T10:50:54;13.00;99.90
11818;DHT22;5966;52.402;5.322;2023-11-19T10:53:23;13.00;99.90
11818;DHT22;5966;52.402;5.322;2023-11-19T10:55:55;13.00;99.90
11818;DHT22;5966;52.402;5.322;2023-11-19T10:58:28;13.00;99.90
11818;DHT22;5966;52.402;5.322;2023-11-19T11:01:02;13.00;99.90
11818;DHT22;5966;52.402;5.322;2023-11-19T11:03:36;12.90;99.90
11818;DHT22;5966;52.402;5.322;2023-11-19T11:06:08;13.00;99.90
11818;DHT22;5966;52.402;5.322;2023-11-19T11:08:37;13.00;99.90
11818;DHT22;5966;52.402;5.322;2023-11-19T11:11:07;13.00;99.90
11818;DHT22;5966;52.402;5.322;2023-11-19T11:13:37;13.00;99.90
11818;DHT22;5966;52.402;5.322;2023-11-19T11:16:18;13.10;99.90
11818;DHT22;5966;52.402;5.322;2023-11-19T11:18:49;13.10;99.90
11818;DHT22;5966;52.402;5.322;2023-11-19T11:21:21;13.10;99.90
11818;DHT22;5966;52.402;5.322;2023-11-19T11:24:14;13.10;99.90
11818;DHT22;5966;52.402;5.322;2023-11-19T11:26:59;13.20;99.90
11818;DHT22;5966;52.402;5.322;2023-11-19T11:29:39;13.20;99.90
11818;DHT22;5966;52.402;5.322;2023-11-19T11:32:21;13.10;99.90
11818;DHT22;5966;52.402;5.322;2023-11-19T11:37:44;13.20;99.90
11818;DHT22;5966;52.402;5.322;2023-11-19T11:40:15;13.20;99.90
11818;DHT22;5966;52.402;5.322;2023-11-19T11:42:45;13.20;99.90
11818;DHT22;5966;52.402;5.322;2023-11-19T11:45:14;13.30;99.90
11818;DHT22;5966;52.402;5.322;2023-11-19T11:48:12;13.30;99.90
11818;DHT22;5966;52.402;5.322;2023-11-19T11:50:54;13.30;99.90
11818;DHT22;5966;52.402;5.322;2023-11-19T11:53:24;13.30;99.90
11818;DHT22;5966;52.402;5.322;2023-11-19T11:55:59;13.40;99.90
11818;DHT22;5966;52.402;5.322;2023-11-19T11:58:31;13.40;99.90
11818;DHT22;5966;52.402;5.322;2023-11-19T12:01:04;13.40;99.90
11818;DHT22;5966;52.402;5.322;2023-11-19T12:03:37;13.40;99.90
11818;DHT22;5966;52.402;5.322;2023-11-19T12:06:07;13.40;99.90
11818;DHT22;5966;52.402;5.322;2023-11-19T12:08:36;13.30;99.90
11818;DHT22;5966;52.402;5.322;2023-11-19T12:11:24;13.30;99.90
11818;DHT22;5966;52.402;5.322;2023-11-19T12:13:55;13.30;99.90
11818;DHT22;5966;52.402;5.322;2023-11-19T12:16:26;13.30;99.90
11818;DHT22;5966;52.402;5.322;2023-11-19T12:19:04;13.30;99.90
11818;DHT22;5966;52.402;5.322;2023-11-19T12:21:34;13.30;99.90
11818;DHT22;5966;52.402;5.322;2023-11-19T12:24:06;13.30;99.90
11818;DHT22;5966;52.402;5.322;2023-11-19T12:26:38;13.30;99.90
11818;DHT22;5966;52.402;5.322;2023-11-19T12:29:07;13.40;99.90
11818;DHT22;5966;52.402;5.322;2023-11-19T12:31:36;13.40;99.90
11818;DHT22;5966;52.402;5.322;2023-11-19T12:34:13;13.40;99.90
11818;DHT22;5966;52.402;5.322;2023-11-19T12:36:41;13.40;99.90
11818;DHT22;5966;52.402;5.322;2023-11-19T12:39:15;13.30;99.90
11818;DHT22;5966;52.402;5.322;2023-11-19T12:41:53;13.40;99.90
11818;DHT22;5966;52.402;5.322;2023-11-19T12:44:22;13.40;99.90
11818;DHT22;5966;52.402;5.322;2023-11-19T12:47:08;13.40;99.90
11818;DHT22;5966;52.402;5.322;2023-11-19T12:49:40;13.30;99.90
11818;DHT22;5966;52.402;5.322;2023-11-19T12:52:13;13.30;99.90
11818;DHT22;5966;52.402;5.322;2023-11-19T12:54:45;13.30;99.90
11818;DHT22;5966;52.402;5.322;2023-11-19T12:57:17;13.30;99.90
11818;DHT22;5966;52.402;5.322;2023-11-19T12:59:56;13.30;99.90
11818;DHT22;5966;52.402;5.322;2023-11-19T13:02:47;13.30;99.90
11818;DHT22;5966;52.402;5.322;2023-11-19T13:05:32;13.30;99.90
11818;DHT22;5966;52.402;5.322;2023-11-19T13:08:09;13.30;99.90
11818;DHT22;5966;52.402;5.322;2023-11-19T13:10:57;13.30;99.90
11818;DHT22;5966;52.402;5.322;2023-11-19T13:13:30;13.30;99.90
11818;DHT22;5966;52.402;5.322;2023-11-19T13:16:08;13.30;99.90
11818;DHT22;5966;52.402;5.322;2023-11-19T13:18:42;13.30;99.90
11818;DHT22;5966;52.402;5.322;2023-11-19T13:21:15;13.30;99.90
11818;DHT22;5966;52.402;5.322;2023-11-19T13:23:53;13.30;99.90
11818;DHT22;5966;52.402;5.322;2023-11-19T13:26:21;13.30;99.90
11818;DHT22;5966;52.402;5.322;2023-11-19T13:29:01;13.30;99.90
11818;DHT22;5966;52.402;5.322;2023-11-19T13:31:30;13.30;99.90
11818;DHT22;5966;52.402;5.322;2023-11-19T13:34:00;13.30;99.90
11818;DHT22;5966;52.402;5.322;2023-11-19T13:36:33;13.30;99.90
11818;DHT22;5966;52.402;5.322;2023-11-19T13:39:03;13.30;99.90
11818;DHT22;5966;52.402;5.322;2023-11-19T13:41:31;13.30;99.90
11818;DHT22;5966;52.402;5.322;2023-11-19T13:44:00;13.30;99.90
11818;DHT22;5966;52.402;5.322;2023-11-19T13:46:28;13.20;99.90
11818;DHT22;5966;52.402;5.322;2023-11-19T13:48:56;13.10;99.90
11818;DHT22;5966;52.402;5.322;2023-11-19T13:51:25;13.00;99.90
11818;DHT22;5966;52.402;5.322;2023-11-19T13:53:56;13.00;99.90
11818;DHT22;5966;52.402;5.322;2023-11-19T13:56:24;12.90;99.90
11818;DHT22;5966;52.402;5.322;2023-11-19T13:58:53;12.90;99.90
11818;DHT22;5966;52.402;5.322;2023-11-19T14:01:21;12.90;99.90
11818;DHT22;5966;52.402;5.322;2023-11-19T14:03:52;12.90;99.90
11818;DHT22;5966;52.402;5.322;2023-11-19T14:06:22;12.90;99.90
11818;DHT22;5966;52.402;5.322;2023-11-19T14:08:50;13.00;99.90
11818;DHT22;5966;52.402;5.322;2023-11-19T14:11:21;13.00;99.90
11818;DHT22;5966;52.402;5.322;2023-11-19T14:13:52;13.00;99.90
11818;DHT22;5966;52.402;5.322;2023-11-19T14:16:21;13.10;99.90
11818;DHT22;5966;52.402;5.322;2023-11-19T14:18:49;13.00;99.90
11818;DHT22;5966;52.402;5.322;2023-11-19T14:21:18;13.10;99.90
11818;DHT22;5966;52.402;5.322;2023-11-19T14:23:48;13.10;99.90
11818;DHT22;5966;52.402;5.322;2023-11-19T14:26:18;13.10;99.90
11818;DHT22;5966;52.402;5.322;2023-11-19T14:29:06;13.10;99.90
11818;DHT22;5966;52.402;5.322;2023-11-19T14:31:45;13.10;99.90
11818;DHT22;5966;52.402;5.322;2023-11-19T14:34:42;13.10;99.90
11818;DHT22;5966;52.402;5.322;2023-11-19T14:37:10;13.10;99.90
11818;DHT22;5966;52.402;5.322;2023-11-19T14:39:41;13.10;99.90
11818;DHT22;5966;52.402;5.322;2023-11-19T14:46:48;13.10;99.90
11818;DHT22;5966;52.402;5.322;2023-11-19T14:49:37;13.10;99.90
11818;DHT22;5966;52.402;5.322;2023-11-19T14:52:16;13.10;99.90
11818;DHT22;5966;52.402;5.322;2023-11-19T14:54:47;13.10;99.90
11818;DHT22;5966;52.402;5.322;2023-11-19T14:57:18;13.10;99.90
11818;DHT22;5966;52.402;5.322;2023-11-19T14:59:46;13.10;99.90
11818;DHT22;5966;52.402;5.322;2023-11-19T15:02:16;13.10;99.90
11818;DHT22;5966;52.402;5.322;2023-11-19T15:04:44;13.10;99.90
11818;DHT22;5966;52.402;5.322;2023-11-19T15:07:12;13.00;99.90
11818;DHT22;5966;52.402;5.322;2023-11-19T15:09:41;13.00;99.90
11818;DHT22;5966;52.402;5.322;2023-11-19T15:12:09;13.00;99.90
11818;DHT22;5966;52.402;5.322;2023-11-19T15:14:37;13.00;99.90
11818;DHT22;5966;52.402;5.322;2023-11-19T15:17:06;13.00;99.90
11818;DHT22;5966;52.402;5.322;2023-11-19T15:19:36;12.90;99.90
11818;DHT22;5966;52.402;5.322;2023-11-19T15:22:05;12.90;99.90
11818;DHT22;5966;52.402;5.322;2023-11-19T15:24:33;12.90;99.90
11818;DHT22;5966;52.402;5.322;2023-11-19T15:27:04;12.90;99.90
11818;DHT22;5966;52.402;5.322;2023-11-19T15:29:36;12.90;99.90
11818;DHT22;5966;52.402;5.322;2023-11-19T15:32:06;12.90;99.90
11818;DHT22;5966;52.402;5.322;2023-11-19T15:34:36;12.90;99.90
11818;DHT22;5966;52.402;5.322;2023-11-19T15:37:05;12.90;99.90
11818;DHT22;5966;52.402;5.322;2023-11-19T15:39:33;12.90;99.90
11818;DHT22;5966;52.402;5.322;2023-11-19T15:42:03;12.90;99.90
11818;DHT22;5966;52.402;5.322;2023-11-19T15:44:31;12.90;99.90
11818;DHT22;5966;52.402;5.322;2023-11-19T15:46:59;12.90;99.90
11818;DHT22;5966;52.402;5.322;2023-11-19T15:49:28;12.80;99.90
11818;DHT22;5966;52.402;5.322;2023-11-19T15:51:57;12.90;99.90
11818;DHT22;5966;52.402;5.322;2023-11-19T15:54:26;12.80;99.90
11818;DHT22;5966;52.402;5.322;2023-11-19T15:56:54;12.80;99.90
11818;DHT22;5966;52.402;5.322;2023-11-19T15:59:22;12.80;99.90
11818;DHT22;5966;52.402;5.322;2023-11-19T16:01:52;12.80;99.90
11818;DHT22;5966;52.402;5.322;2023-11-19T16:04:20;12.80;99.90
11818;DHT22;5966;52.402;5.322;2023-11-19T16:06:48;12.80;99.90
11818;DHT22;5966;52.402;5.322;2023-11-19T16:09:19;12.80;99.90
11818;DHT22;5966;52.402;5.322;2023-11-19T16:11:49;12.80;99.90